createdAt,value
2018-09-01T01:30:49.181Z,0.00
2018-09-01T01:30:49.748Z,0.00
2018-09-01T01:30:50.349Z,0.00
2018-09-01T01:30:50.947Z,0.00
2018-09-01T01:30:51.555Z,0.00
2018-09-01T01:30:52.147Z,0.00
2018-09-01T01:30:52.753Z,0.00
2018-09-01T01:30:53.345Z,0.00
2018-09-01T01:31:46.804Z,0.00
2018-09-01T01:31:47.401Z,0.00
2018-09-01T01:31:48.000Z,0.00
2018-09-01T01:31:48.600Z,0.00
2018-09-01T01:31:49.199Z,0.00
2018-09-01T01:31:49.800Z,0.00
2018-09-01T01:31:50.402Z,0.00
2018-09-01T01:31:50.998Z,0.00
2018-09-01T01:32:44.459Z,0.00
2018-09-01T01:32:45.052Z,0.00
2018-09-01T01:32:45.650Z,0.00
2018-09-01T01:32:46.252Z,0.00
2018-09-01T01:32:46.852Z,0.00
2018-09-01T01:32:47.450Z,0.00
2018-09-01T01:32:48.050Z,0.00
2018-09-01T01:32:48.653Z,0.00
2018-09-01T01:33:42.111Z,0.00
2018-09-01T01:33:42.703Z,0.00
2018-09-01T01:33:43.305Z,0.00
2018-09-01T01:33:43.904Z,0.00
2018-09-01T01:33:44.504Z,0.00
2018-09-01T01:33:45.104Z,0.00
2018-09-01T01:33:45.704Z,0.00
2018-09-01T01:33:46.304Z,0.00
2018-09-01T01:34:40.786Z,0.00
2018-09-01T01:34:41.381Z,0.00
2018-09-01T01:34:41.981Z,0.00
2018-09-01T01:34:42.581Z,0.00
2018-09-01T01:34:43.181Z,0.00
2018-09-01T01:34:43.780Z,0.00
2018-09-01T01:34:44.381Z,0.00
2018-09-01T01:34:44.982Z,0.00
2018-09-01T01:35:39.485Z,0.00
2018-09-01T01:35:40.057Z,0.00
2018-09-01T01:35:40.665Z,0.00
2018-09-01T01:35:41.256Z,0.00
2018-09-01T01:35:41.856Z,0.00
2018-09-01T01:35:42.457Z,0.00
2018-09-01T01:35:43.057Z,0.00
2018-09-01T01:35:43.655Z,0.00
2018-09-01T01:36:38.141Z,0.00
2018-09-01T01:36:38.734Z,0.00
2018-09-01T01:36:39.333Z,0.00
2018-09-01T01:36:39.933Z,0.00
2018-09-01T01:36:40.534Z,0.00
2018-09-01T01:36:41.133Z,0.00
2018-09-01T01:36:41.732Z,0.00
2018-09-01T01:36:42.336Z,0.00
2018-09-01T01:37:35.791Z,0.00
2018-09-01T01:37:36.385Z,0.00
2018-09-01T01:37:36.987Z,0.00
2018-09-01T01:37:37.585Z,0.00
2018-09-01T01:37:38.185Z,0.00
2018-09-01T01:37:38.784Z,0.00
2018-09-01T01:37:39.384Z,0.00
2018-09-01T01:37:39.991Z,0.00
2018-09-01T01:38:34.469Z,0.00
2018-09-01T01:38:35.061Z,0.00
2018-09-01T01:38:35.660Z,0.00
2018-09-01T01:38:36.261Z,0.00
2018-09-01T01:38:36.860Z,0.00
2018-09-01T01:38:37.462Z,0.00
2018-09-01T01:38:38.061Z,0.00
2018-09-01T01:38:38.663Z,0.00
2018-09-01T01:39:32.118Z,0.00
2018-09-01T01:39:32.713Z,0.00
2018-09-01T01:39:33.313Z,0.00
2018-09-01T01:39:33.913Z,0.00
2018-09-01T01:39:34.518Z,0.00
2018-09-01T01:39:35.115Z,0.00
2018-09-01T01:39:35.712Z,0.00
2018-09-01T01:39:36.316Z,0.00
2018-09-01T01:40:29.768Z,0.00
2018-09-01T01:40:30.366Z,0.00
2018-09-01T01:40:30.968Z,0.00
2018-09-01T01:40:31.567Z,0.00
2018-09-01T01:40:32.165Z,0.00
2018-09-01T01:40:32.765Z,0.00
2018-09-01T01:40:33.366Z,0.00
2018-09-01T01:40:33.967Z,0.00
2018-09-01T01:41:28.470Z,0.00
2018-09-01T01:41:29.043Z,0.00
2018-09-01T01:41:29.641Z,0.00
2018-09-01T01:41:30.243Z,0.00
2018-09-01T01:41:30.839Z,0.00
2018-09-01T01:41:31.442Z,0.00
2018-09-01T01:41:32.041Z,0.00
2018-09-01T01:41:32.643Z,0.00
2018-09-01T01:42:27.121Z,0.00
2018-09-01T01:42:27.716Z,0.00
2018-09-01T01:42:28.315Z,0.00
2018-09-01T01:42:28.916Z,0.00
2018-09-01T01:42:29.516Z,0.00
2018-09-01T01:42:30.117Z,0.00
2018-09-01T01:42:30.721Z,0.00
2018-09-01T01:42:31.318Z,0.00
2018-09-01T01:43:24.771Z,0.00
2018-09-01T01:43:25.368Z,0.00
2018-09-01T01:43:25.974Z,0.00
2018-09-01T01:43:26.569Z,0.00
2018-09-01T01:43:27.169Z,0.00
2018-09-01T01:43:27.771Z,0.00
2018-09-01T01:43:28.368Z,0.00
2018-09-01T01:43:28.968Z,0.00
2018-09-01T01:44:27.441Z,0.00
2018-09-01T01:44:28.038Z,0.00
2018-09-01T01:44:28.641Z,0.00
2018-09-01T01:44:29.234Z,0.00
2018-09-01T01:44:29.842Z,0.00
2018-09-01T01:44:30.435Z,0.00
2018-09-01T01:44:31.036Z,0.00
2018-09-01T01:44:31.634Z,0.00
2018-09-01T01:44:32.233Z,0.00
2018-09-01T01:44:32.834Z,0.00
2018-09-01T01:44:33.435Z,0.00
2018-09-01T01:44:34.033Z,0.00
2018-09-01T01:44:34.639Z,0.00
2018-09-01T01:44:35.235Z,0.00
2018-09-01T01:44:35.839Z,0.00
2018-09-01T01:44:36.437Z,0.00
2018-09-01T01:44:37.041Z,0.00
2018-09-01T05:44:38.441Z,253.13
2018-09-01T05:44:39.014Z,253.13
2018-09-01T05:44:39.612Z,253.13
2018-09-01T05:44:40.214Z,253.13
2018-09-01T05:44:40.813Z,253.13
2018-09-01T05:44:41.416Z,253.13
2018-09-01T05:44:42.013Z,253.13
2018-09-01T05:44:42.613Z,253.13
2018-09-01T05:45:37.093Z,253.13
2018-09-01T05:45:37.693Z,253.13
2018-09-01T05:45:38.287Z,253.13
2018-09-01T05:45:38.888Z,253.13
2018-09-01T05:45:39.488Z,253.13
2018-09-01T05:45:40.088Z,253.13
2018-09-01T05:45:40.688Z,253.13
2018-09-01T05:45:41.287Z,253.13
2018-09-01T05:46:34.745Z,253.13
2018-09-01T05:46:35.348Z,253.13
2018-09-01T05:46:35.940Z,253.13
2018-09-01T05:46:36.540Z,253.13
2018-09-01T05:46:37.139Z,253.13
2018-09-01T05:46:37.739Z,253.13
2018-09-01T05:46:38.339Z,253.13
2018-09-01T05:46:38.942Z,253.13
2018-09-01T05:47:32.397Z,247.50
2018-09-01T05:47:32.995Z,247.50
2018-09-01T05:47:33.593Z,247.50
2018-09-01T05:47:34.194Z,247.50
2018-09-01T05:47:34.796Z,247.50
2018-09-01T05:47:35.395Z,247.50
2018-09-01T05:47:35.993Z,247.50
2018-09-01T05:47:36.594Z,247.50
2018-09-01T05:48:30.049Z,247.50
2018-09-01T05:48:30.645Z,247.50
2018-09-01T05:48:31.246Z,247.50
2018-09-01T05:48:31.844Z,247.50
2018-09-01T05:48:32.445Z,247.50
2018-09-01T05:48:33.046Z,247.50
2018-09-01T05:48:33.644Z,247.50
2018-09-01T05:48:34.244Z,247.50
2018-09-01T05:49:27.760Z,247.50
2018-09-01T05:49:28.299Z,247.50
2018-09-01T05:49:28.897Z,247.50
2018-09-01T05:49:29.498Z,247.50
2018-09-01T05:49:30.099Z,247.50
2018-09-01T05:49:30.698Z,247.50
2018-09-01T05:49:31.298Z,247.50
2018-09-01T05:49:31.898Z,247.50
2018-09-01T05:50:26.375Z,247.50
2018-09-01T05:50:26.977Z,247.50
2018-09-01T05:50:27.577Z,247.50
2018-09-01T05:50:28.173Z,247.50
2018-09-01T05:50:28.772Z,247.50
2018-09-01T05:50:29.371Z,247.50
2018-09-01T05:50:29.972Z,247.50
2018-09-01T05:50:30.571Z,247.50
2018-09-01T05:51:24.029Z,258.75
2018-09-01T05:51:24.627Z,258.75
2018-09-01T05:51:25.225Z,258.75
2018-09-01T05:51:25.828Z,258.75
2018-09-01T05:51:26.426Z,258.75
2018-09-01T05:51:27.026Z,258.75
2018-09-01T05:51:27.624Z,258.75
2018-09-01T05:51:28.225Z,258.75
2018-09-01T05:52:22.704Z,258.75
2018-09-01T05:52:23.301Z,258.75
2018-09-01T05:52:23.901Z,258.75
2018-09-01T05:52:24.501Z,258.75
2018-09-01T05:52:25.101Z,258.75
2018-09-01T05:52:25.701Z,258.75
2018-09-01T05:52:26.300Z,258.75
2018-09-01T05:52:26.900Z,258.75
2018-09-01T05:53:20.355Z,270.00
2018-09-01T05:53:20.954Z,270.00
2018-09-01T05:53:21.553Z,270.00
2018-09-01T05:53:22.153Z,275.63
2018-09-01T05:53:22.753Z,275.63
2018-09-01T05:53:23.354Z,275.63
2018-09-01T05:53:23.953Z,275.63
2018-09-01T05:53:24.554Z,275.63
2018-09-01T05:54:18.033Z,286.88
2018-09-01T05:54:18.607Z,286.88
2018-09-01T05:54:19.208Z,286.88
2018-09-01T05:54:19.806Z,286.88
2018-09-01T05:54:20.409Z,286.88
2018-09-01T05:54:21.005Z,286.88
2018-09-01T05:54:21.604Z,286.88
2018-09-01T05:54:22.204Z,286.88
2018-09-01T05:55:16.683Z,292.50
2018-09-01T05:55:17.282Z,298.13
2018-09-01T05:55:17.884Z,292.50
2018-09-01T05:55:18.478Z,292.50
2018-09-01T05:55:19.117Z,292.50
2018-09-01T05:55:19.677Z,292.50
2018-09-01T05:55:20.279Z,292.50
2018-09-01T05:55:20.878Z,292.50
2018-09-01T05:56:14.336Z,298.13
2018-09-01T05:56:14.932Z,298.13
2018-09-01T05:56:15.532Z,298.13
2018-09-01T05:56:16.133Z,298.13
2018-09-01T05:56:16.732Z,298.13
2018-09-01T05:56:17.332Z,298.13
2018-09-01T05:56:17.937Z,298.13
2018-09-01T05:56:18.531Z,298.13
2018-09-01T05:57:11.987Z,298.13
2018-09-01T05:57:12.586Z,298.13
2018-09-01T05:57:13.185Z,298.13
2018-09-01T05:57:13.784Z,298.13
2018-09-01T05:57:14.384Z,298.13
2018-09-01T05:57:14.986Z,298.13
2018-09-01T05:57:15.588Z,298.13
2018-09-01T05:57:16.183Z,292.50
2018-09-01T05:58:09.641Z,292.50
2018-09-01T05:58:10.237Z,292.50
2018-09-01T05:58:10.837Z,292.50
2018-09-01T05:58:11.438Z,292.50
2018-09-01T05:58:12.037Z,292.50
2018-09-01T05:58:12.638Z,292.50
2018-09-01T05:58:13.238Z,292.50
2018-09-01T05:58:13.835Z,292.50
2018-09-01T05:59:07.320Z,281.25
2018-09-01T05:59:07.890Z,281.25
2018-09-01T05:59:08.493Z,281.25
2018-09-01T05:59:09.091Z,281.25
2018-09-01T05:59:09.690Z,281.25
2018-09-01T05:59:10.289Z,281.25
2018-09-01T05:59:10.891Z,281.25
2018-09-01T05:59:11.490Z,281.25
2018-09-01T06:00:04.944Z,275.63
2018-09-01T06:00:05.540Z,275.63
2018-09-01T06:00:06.143Z,281.25
2018-09-01T06:00:06.739Z,275.63
2018-09-01T06:00:07.338Z,281.25
2018-09-01T06:00:07.939Z,275.63
2018-09-01T06:00:08.538Z,275.63
2018-09-01T06:00:09.141Z,275.63
2018-09-01T06:01:02.594Z,292.50
2018-09-01T06:01:03.197Z,292.50
2018-09-01T06:01:03.792Z,298.13
2018-09-01T06:01:04.390Z,298.13
2018-09-01T06:01:04.991Z,298.13
2018-09-01T06:01:05.591Z,298.13
2018-09-01T06:01:06.191Z,298.13
2018-09-01T06:01:06.793Z,303.75
2018-09-01T06:02:00.246Z,331.88
2018-09-01T06:02:00.843Z,331.88
2018-09-01T06:02:01.444Z,337.50
2018-09-01T06:02:02.047Z,337.50
2018-09-01T06:02:02.643Z,337.50
2018-09-01T06:02:03.243Z,337.50
2018-09-01T06:02:03.848Z,337.50
2018-09-01T06:02:04.448Z,337.50
2018-09-01T06:02:58.921Z,365.63
2018-09-01T06:02:59.520Z,365.63
2018-09-01T06:03:00.120Z,371.25
2018-09-01T06:03:00.719Z,365.63
2018-09-01T06:03:01.319Z,365.63
2018-09-01T06:03:01.919Z,365.63
2018-09-01T06:03:02.522Z,371.25
2018-09-01T06:03:03.117Z,365.63
2018-09-01T06:03:56.599Z,382.50
2018-09-01T06:03:57.172Z,382.50
2018-09-01T06:03:57.771Z,382.50
2018-09-01T06:03:58.376Z,382.50
2018-09-01T06:03:58.970Z,382.50
2018-09-01T06:03:59.571Z,388.13
2018-09-01T06:04:00.170Z,382.50
2018-09-01T06:04:00.770Z,382.50
2018-09-01T06:04:54.228Z,382.50
2018-09-01T06:04:54.824Z,382.50
2018-09-01T06:04:55.421Z,382.50
2018-09-01T06:04:56.027Z,382.50
2018-09-01T06:04:56.623Z,382.50
2018-09-01T06:04:57.222Z,382.50
2018-09-01T06:04:57.823Z,382.50
2018-09-01T06:04:58.422Z,382.50
2018-09-01T06:05:52.953Z,371.25
2018-09-01T06:05:53.532Z,371.25
2018-09-01T06:05:54.116Z,371.25
2018-09-01T06:05:54.748Z,371.25
2018-09-01T06:05:55.370Z,371.25
2018-09-01T06:05:55.959Z,371.25
2018-09-01T06:05:56.603Z,371.25
2018-09-01T06:05:57.124Z,371.25
2018-09-01T06:06:51.578Z,365.63
2018-09-01T06:06:52.175Z,365.63
2018-09-01T06:06:52.774Z,365.63
2018-09-01T06:06:53.406Z,365.63
2018-09-01T06:06:53.975Z,365.63
2018-09-01T06:06:54.573Z,365.63
2018-09-01T06:06:55.174Z,365.63
2018-09-01T06:06:55.776Z,365.63
2018-09-01T06:07:50.254Z,371.25
2018-09-01T06:07:50.849Z,371.25
2018-09-01T06:07:51.451Z,371.25
2018-09-01T06:07:52.050Z,371.25
2018-09-01T06:07:52.650Z,371.25
2018-09-01T06:07:53.249Z,371.25
2018-09-01T06:07:53.850Z,371.25
2018-09-01T06:07:54.451Z,371.25
2018-09-01T06:08:48.959Z,376.88
2018-09-01T06:08:49.527Z,376.88
2018-09-01T06:08:50.126Z,376.88
2018-09-01T06:08:50.725Z,376.88
2018-09-01T06:08:51.325Z,376.88
2018-09-01T06:08:51.925Z,376.88
2018-09-01T06:08:52.529Z,376.88
2018-09-01T06:08:53.126Z,376.88
2018-09-01T06:09:47.603Z,365.63
2018-09-01T06:09:48.201Z,365.63
2018-09-01T06:09:48.804Z,365.63
2018-09-01T06:09:49.405Z,365.63
2018-09-01T06:09:50.002Z,365.63
2018-09-01T06:09:50.602Z,365.63
2018-09-01T06:09:51.201Z,365.63
2018-09-01T06:09:51.803Z,365.63
2018-09-01T06:10:45.257Z,354.38
2018-09-01T06:10:45.855Z,354.38
2018-09-01T06:10:46.454Z,354.38
2018-09-01T06:10:47.055Z,354.38
2018-09-01T06:10:47.654Z,354.38
2018-09-01T06:10:48.254Z,354.38
2018-09-01T06:10:48.852Z,354.38
2018-09-01T06:10:49.453Z,354.38
2018-09-01T06:11:43.933Z,348.75
2018-09-01T06:11:44.529Z,348.75
2018-09-01T06:11:45.129Z,354.38
2018-09-01T06:11:45.732Z,348.75
2018-09-01T06:11:46.329Z,348.75
2018-09-01T06:11:46.929Z,348.75
2018-09-01T06:11:47.529Z,348.75
2018-09-01T06:11:48.139Z,348.75
2018-09-01T06:12:42.607Z,337.50
2018-09-01T06:12:43.205Z,337.50
2018-09-01T06:12:43.806Z,337.50
2018-09-01T06:12:44.408Z,337.50
2018-09-01T06:12:45.008Z,337.50
2018-09-01T06:12:45.604Z,337.50
2018-09-01T06:12:46.204Z,343.13
2018-09-01T06:12:46.803Z,343.13
2018-09-01T06:13:41.285Z,337.50
2018-09-01T06:13:41.883Z,337.50
2018-09-01T06:13:42.479Z,337.50
2018-09-01T06:13:43.081Z,337.50
2018-09-01T06:13:43.679Z,337.50
2018-09-01T06:13:44.278Z,337.50
2018-09-01T06:13:44.879Z,337.50
2018-09-01T06:13:45.479Z,337.50
2018-09-01T06:14:38.960Z,331.88
2018-09-01T06:14:39.533Z,331.88
2018-09-01T06:14:40.133Z,331.88
2018-09-01T06:14:40.736Z,331.88
2018-09-01T06:14:41.331Z,331.88
2018-09-01T06:14:41.931Z,331.88
2018-09-01T06:14:42.534Z,331.88
2018-09-01T06:14:43.132Z,331.88
2018-09-01T06:15:36.587Z,331.88
2018-09-01T06:15:37.185Z,331.88
2018-09-01T06:15:37.784Z,331.88
2018-09-01T06:15:38.388Z,331.88
2018-09-01T06:15:38.984Z,331.88
2018-09-01T06:15:39.584Z,331.88
2018-09-01T06:15:40.182Z,331.88
2018-09-01T06:15:40.783Z,331.88
2018-09-01T06:16:35.261Z,337.50
2018-09-01T06:16:35.860Z,337.50
2018-09-01T06:16:36.461Z,337.50
2018-09-01T06:16:37.063Z,337.50
2018-09-01T06:16:37.659Z,337.50
2018-09-01T06:16:38.260Z,337.50
2018-09-01T06:16:38.859Z,337.50
2018-09-01T06:16:39.459Z,337.50
2018-09-01T06:17:32.983Z,337.50
2018-09-01T06:17:33.578Z,337.50
2018-09-01T06:17:34.149Z,337.50
2018-09-01T06:17:34.753Z,337.50
2018-09-01T06:17:35.412Z,337.50
2018-09-01T06:17:35.945Z,337.50
2018-09-01T06:17:36.631Z,337.50
2018-09-01T06:17:37.392Z,337.50
2018-09-01T06:18:31.590Z,343.13
2018-09-01T06:18:32.187Z,343.13
2018-09-01T06:18:32.786Z,343.13
2018-09-01T06:18:33.388Z,343.13
2018-09-01T06:18:33.987Z,343.13
2018-09-01T06:18:34.587Z,343.13
2018-09-01T06:18:35.186Z,343.13
2018-09-01T06:18:35.785Z,343.13
2018-09-01T06:19:29.267Z,343.13
2018-09-01T06:19:29.838Z,343.13
2018-09-01T06:19:30.439Z,343.13
2018-09-01T06:19:31.042Z,343.13
2018-09-01T06:19:31.638Z,343.13
2018-09-01T06:19:32.241Z,343.13
2018-09-01T06:19:32.839Z,343.13
2018-09-01T06:19:33.438Z,343.13
2018-09-01T06:20:26.893Z,348.75
2018-09-01T06:20:27.494Z,343.13
2018-09-01T06:20:28.089Z,348.75
2018-09-01T06:20:28.695Z,343.13
2018-09-01T06:20:29.289Z,348.75
2018-09-01T06:20:29.890Z,343.13
2018-09-01T06:20:30.489Z,343.13
2018-09-01T06:20:31.089Z,343.13
2018-09-01T06:21:24.545Z,343.13
2018-09-01T06:21:25.143Z,343.13
2018-09-01T06:21:25.743Z,343.13
2018-09-01T06:21:26.345Z,343.13
2018-09-01T06:21:26.942Z,343.13
2018-09-01T06:21:27.543Z,343.13
2018-09-01T06:21:28.142Z,343.13
2018-09-01T06:21:28.743Z,343.13
2018-09-01T06:22:22.200Z,343.13
2018-09-01T06:22:22.795Z,343.13
2018-09-01T06:22:23.395Z,343.13
2018-09-01T06:22:23.997Z,343.13
2018-09-01T06:22:24.596Z,343.13
2018-09-01T06:22:25.193Z,343.13
2018-09-01T06:22:25.793Z,343.13
2018-09-01T06:22:26.394Z,343.13
2018-09-01T06:23:20.872Z,343.13
2018-09-01T06:23:21.468Z,343.13
2018-09-01T06:23:22.070Z,343.13
2018-09-01T06:23:22.672Z,343.13
2018-09-01T06:23:23.268Z,343.13
2018-09-01T06:23:23.869Z,343.13
2018-09-01T06:23:24.468Z,343.13
2018-09-01T06:23:25.069Z,343.13
2018-09-01T06:24:18.555Z,343.13
2018-09-01T06:24:19.133Z,343.13
2018-09-01T06:24:19.723Z,343.13
2018-09-01T06:24:20.324Z,343.13
2018-09-01T06:24:20.929Z,343.13
2018-09-01T06:24:21.543Z,343.13
2018-09-01T06:24:22.122Z,343.13
2018-09-01T06:24:22.727Z,343.13
2018-09-01T06:25:16.176Z,337.50
2018-09-01T06:25:16.775Z,337.50
2018-09-01T06:25:17.373Z,337.50
2018-09-01T06:25:17.981Z,337.50
2018-09-01T06:25:18.577Z,337.50
2018-09-01T06:25:19.176Z,337.50
2018-09-01T06:25:19.774Z,337.50
2018-09-01T06:25:20.374Z,337.50
2018-09-01T06:26:14.864Z,331.88
2018-09-01T06:26:15.450Z,331.88
2018-09-01T06:26:16.049Z,331.88
2018-09-01T06:26:16.652Z,331.88
2018-09-01T06:26:17.250Z,331.88
2018-09-01T06:26:17.846Z,331.88
2018-09-01T06:26:18.447Z,331.88
2018-09-01T06:26:19.046Z,331.88
2018-09-01T06:27:12.507Z,331.88
2018-09-01T06:27:13.102Z,331.88
2018-09-01T06:27:13.704Z,331.88
2018-09-01T06:27:14.323Z,331.88
2018-09-01T06:27:14.911Z,331.88
2018-09-01T06:27:15.516Z,331.88
2018-09-01T06:27:16.105Z,331.88
2018-09-01T06:27:16.701Z,331.88
2018-09-01T06:45:17.871Z,337.50
2018-09-01T06:45:18.446Z,337.50
2018-09-01T06:45:19.043Z,337.50
2018-09-01T06:45:19.644Z,337.50
2018-09-01T06:45:20.241Z,337.50
2018-09-01T06:45:20.841Z,337.50
2018-09-01T06:45:21.441Z,337.50
2018-09-01T06:45:22.045Z,337.50
2018-09-01T06:46:15.498Z,337.50
2018-09-01T06:46:16.100Z,337.50
2018-09-01T06:46:16.697Z,337.50
2018-09-01T06:46:17.297Z,337.50
2018-09-01T06:46:17.895Z,337.50
2018-09-01T06:46:18.497Z,337.50
2018-09-01T06:46:19.096Z,343.13
2018-09-01T06:46:19.696Z,337.50
2018-09-01T06:47:14.174Z,343.13
2018-09-01T06:47:14.773Z,343.13
2018-09-01T06:47:15.371Z,343.13
2018-09-01T06:47:15.970Z,343.13
2018-09-01T06:47:16.571Z,343.13
2018-09-01T06:47:17.173Z,343.13
2018-09-01T06:47:17.770Z,343.13
2018-09-01T06:47:18.370Z,343.13
2018-09-01T06:48:12.852Z,343.13
2018-09-01T06:48:13.448Z,343.13
2018-09-01T06:48:14.049Z,343.13
2018-09-01T06:48:14.649Z,343.13
2018-09-01T06:48:15.248Z,343.13
2018-09-01T06:48:15.847Z,343.13
2018-09-01T06:48:16.447Z,343.13
2018-09-01T06:48:17.053Z,343.13
2018-09-01T06:49:10.502Z,343.13
2018-09-01T06:49:11.101Z,343.13
2018-09-01T06:49:11.702Z,343.13
2018-09-01T06:49:12.300Z,343.13
2018-09-01T06:49:12.900Z,343.13
2018-09-01T06:49:13.500Z,343.13
2018-09-01T06:49:14.101Z,343.13
2018-09-01T06:49:14.703Z,343.13
2018-09-01T06:50:10.236Z,348.75
2018-09-01T06:50:10.806Z,354.38
2018-09-01T06:50:11.401Z,348.75
2018-09-01T06:50:11.999Z,348.75
2018-09-01T06:50:12.603Z,348.75
2018-09-01T06:50:13.204Z,348.75
2018-09-01T06:50:13.799Z,348.75
2018-09-01T06:50:14.399Z,348.75
2018-09-01T06:51:08.881Z,348.75
2018-09-01T06:51:09.484Z,348.75
2018-09-01T06:51:10.073Z,348.75
2018-09-01T06:51:10.674Z,348.75
2018-09-01T06:51:11.273Z,348.75
2018-09-01T06:51:11.875Z,348.75
2018-09-01T06:51:12.478Z,348.75
2018-09-01T06:51:13.074Z,348.75
2018-09-01T06:52:07.042Z,348.75
2018-09-01T06:52:07.646Z,348.75
2018-09-01T06:52:08.239Z,348.75
2018-09-01T06:52:08.844Z,348.75
2018-09-01T06:52:09.441Z,348.75
2018-09-01T06:52:10.088Z,348.75
2018-09-01T06:52:10.652Z,348.75
2018-09-01T06:53:04.185Z,354.38
2018-09-01T06:53:04.784Z,354.38
2018-09-01T06:53:05.382Z,354.38
2018-09-01T06:53:05.981Z,354.38
2018-09-01T06:53:06.581Z,354.38
2018-09-01T06:53:07.180Z,354.38
2018-09-01T06:53:07.781Z,354.38
2018-09-01T06:53:08.381Z,354.38
2018-09-01T06:54:02.861Z,360.00
2018-09-01T06:54:03.456Z,360.00
2018-09-01T06:54:04.055Z,360.00
2018-09-01T06:54:04.664Z,360.00
2018-09-01T06:54:05.262Z,360.00
2018-09-01T06:54:05.855Z,360.00
2018-09-01T06:54:06.457Z,360.00
2018-09-01T06:54:07.054Z,360.00
2018-09-01T06:55:00.549Z,360.00
2018-09-01T06:55:01.109Z,360.00
2018-09-01T06:55:01.709Z,360.00
2018-09-01T06:55:02.311Z,360.00
2018-09-01T06:55:02.908Z,360.00
2018-09-01T06:55:03.508Z,360.00
2018-09-01T06:55:04.109Z,360.00
2018-09-01T06:55:04.708Z,360.00
2018-09-01T06:55:59.186Z,360.00
2018-09-01T06:55:59.782Z,360.00
2018-09-01T06:56:00.384Z,360.00
2018-09-01T06:56:00.984Z,360.00
2018-09-01T06:56:01.583Z,360.00
2018-09-01T06:56:02.182Z,360.00
2018-09-01T06:56:02.782Z,360.00
2018-09-01T06:56:03.383Z,360.00
2018-09-01T06:56:56.846Z,360.00
2018-09-01T06:56:57.437Z,360.00
2018-09-01T06:56:58.035Z,360.00
2018-09-01T06:56:58.638Z,360.00
2018-09-01T06:56:59.240Z,360.00
2018-09-01T06:56:59.836Z,360.00
2018-09-01T06:57:00.436Z,360.00
2018-09-01T06:57:01.035Z,360.00
2018-09-01T06:57:54.491Z,360.00
2018-09-01T06:57:55.088Z,360.00
2018-09-01T06:57:55.688Z,360.00
2018-09-01T06:57:56.289Z,360.00
2018-09-01T06:57:56.888Z,360.00
2018-09-01T06:57:57.488Z,365.63
2018-09-01T06:57:58.087Z,365.63
2018-09-01T06:57:58.688Z,365.63
2018-09-01T06:58:53.165Z,365.63
2018-09-01T06:58:53.763Z,365.63
2018-09-01T06:58:54.363Z,365.63
2018-09-01T06:58:54.966Z,365.63
2018-09-01T06:58:55.563Z,365.63
2018-09-01T06:58:56.161Z,365.63
2018-09-01T06:58:56.763Z,365.63
2018-09-01T06:58:57.362Z,365.63
2018-09-01T06:59:50.845Z,365.63
2018-09-01T06:59:51.416Z,365.63
2018-09-01T06:59:52.016Z,365.63
2018-09-01T06:59:52.634Z,365.63
2018-09-01T06:59:53.215Z,365.63
2018-09-01T06:59:53.815Z,365.63
2018-09-01T06:59:54.414Z,365.63
2018-09-01T06:59:55.015Z,365.63
2018-09-01T07:00:48.470Z,365.63
2018-09-01T07:00:49.066Z,365.63
2018-09-01T07:00:49.665Z,365.63
2018-09-01T07:00:50.268Z,365.63
2018-09-01T07:00:50.870Z,365.63
2018-09-01T07:00:51.466Z,365.63
2018-09-01T07:00:52.067Z,365.63
2018-09-01T07:00:52.672Z,365.63
2018-09-01T07:01:47.145Z,365.63
2018-09-01T07:01:47.741Z,365.63
2018-09-01T07:01:48.342Z,365.63
2018-09-01T07:01:48.946Z,365.63
2018-09-01T07:01:49.544Z,365.63
2018-09-01T07:01:50.140Z,365.63
2018-09-01T07:01:50.741Z,365.63
2018-09-01T07:01:51.342Z,365.63
2018-09-01T07:02:44.798Z,365.63
2018-09-01T07:02:45.395Z,365.63
2018-09-01T07:02:45.994Z,365.63
2018-09-01T07:02:46.596Z,365.63
2018-09-01T07:02:47.202Z,365.63
2018-09-01T07:02:47.814Z,365.63
2018-09-01T07:02:48.392Z,365.63
2018-09-01T07:02:49.042Z,365.63
2018-09-01T07:03:43.984Z,365.63
2018-09-01T07:03:44.582Z,365.63
2018-09-01T07:03:45.181Z,365.63
2018-09-01T07:03:45.782Z,365.63
2018-09-01T07:03:46.381Z,365.63
2018-09-01T07:03:46.981Z,365.63
2018-09-01T07:04:41.969Z,365.63
2018-09-01T07:04:42.540Z,365.63
2018-09-01T07:04:43.147Z,365.63
2018-09-01T07:04:43.742Z,365.63
2018-09-01T07:04:44.340Z,365.63
2018-09-01T07:04:44.940Z,365.63
2018-09-01T07:04:45.539Z,365.63
2018-09-01T07:04:46.142Z,365.63
2018-09-01T07:05:40.658Z,365.63
2018-09-01T07:05:41.218Z,365.63
2018-09-01T07:05:41.816Z,365.63
2018-09-01T07:05:42.417Z,365.63
2018-09-01T07:05:43.017Z,365.63
2018-09-01T07:05:43.618Z,365.63
2018-09-01T07:05:44.216Z,365.63
2018-09-01T07:05:44.820Z,365.63
2018-09-01T07:06:49.982Z,371.25
2018-09-01T07:06:50.543Z,371.25
2018-09-01T07:06:51.146Z,371.25
2018-09-01T07:06:51.743Z,371.25
2018-09-01T07:06:52.342Z,371.25
2018-09-01T07:06:52.940Z,371.25
2018-09-01T07:06:53.541Z,371.25
2018-09-01T07:06:54.142Z,371.25
2018-09-01T07:07:47.597Z,371.25
2018-09-01T07:07:48.202Z,371.25
2018-09-01T07:07:48.792Z,371.25
2018-09-01T07:07:49.394Z,371.25
2018-09-01T07:07:49.992Z,371.25
2018-09-01T07:07:50.592Z,371.25
2018-09-01T07:07:51.192Z,371.25
2018-09-01T07:07:51.792Z,371.25
2018-09-01T07:08:46.391Z,371.25
2018-09-01T07:08:46.938Z,371.25
2018-09-01T07:08:47.539Z,371.25
2018-09-01T07:08:48.136Z,371.25
2018-09-01T07:08:48.692Z,371.25
2018-09-01T07:08:49.334Z,371.25
2018-09-01T07:08:49.951Z,371.25
2018-09-01T07:08:50.546Z,376.88
2018-09-01T07:09:44.973Z,371.25
2018-09-01T07:09:45.544Z,371.25
2018-09-01T07:09:46.143Z,371.25
2018-09-01T07:09:46.748Z,371.25
2018-09-01T07:09:47.346Z,371.25
2018-09-01T07:09:47.944Z,371.25
2018-09-01T07:09:48.544Z,371.25
2018-09-01T07:09:49.143Z,371.25
2018-09-01T07:10:43.622Z,376.88
2018-09-01T07:10:44.221Z,376.88
2018-09-01T07:10:44.821Z,376.88
2018-09-01T07:10:45.422Z,376.88
2018-09-01T07:10:46.021Z,376.88
2018-09-01T07:10:46.621Z,376.88
2018-09-01T07:10:47.220Z,376.88
2018-09-01T07:10:47.819Z,376.88
2018-09-01T07:11:41.275Z,371.25
2018-09-01T07:11:41.873Z,371.25
2018-09-01T07:11:42.473Z,371.25
2018-09-01T07:11:43.074Z,371.25
2018-09-01T07:11:43.673Z,371.25
2018-09-01T07:11:44.273Z,371.25
2018-09-01T07:11:44.873Z,371.25
2018-09-01T07:11:45.473Z,371.25
2018-09-01T07:12:39.950Z,371.25
2018-09-01T07:12:40.549Z,371.25
2018-09-01T07:12:41.148Z,371.25
2018-09-01T07:12:41.749Z,371.25
2018-09-01T07:12:42.350Z,371.25
2018-09-01T07:12:42.948Z,371.25
2018-09-01T07:12:43.549Z,371.25
2018-09-01T07:12:44.146Z,371.25
2018-09-01T07:13:37.604Z,371.25
2018-09-01T07:13:38.202Z,371.25
2018-09-01T07:13:38.800Z,371.25
2018-09-01T07:13:39.401Z,376.88
2018-09-01T07:13:40.003Z,376.88
2018-09-01T07:13:40.600Z,371.25
2018-09-01T07:13:41.201Z,371.25
2018-09-01T07:13:41.801Z,371.25
2018-09-01T07:14:35.287Z,371.25
2018-09-01T07:14:35.851Z,371.25
2018-09-01T07:14:36.451Z,371.25
2018-09-01T07:14:37.053Z,376.88
2018-09-01T07:14:37.659Z,376.88
2018-09-01T07:14:38.252Z,376.88
2018-09-01T07:14:38.859Z,371.25
2018-09-01T07:14:39.452Z,376.88
2018-09-01T07:15:32.907Z,376.88
2018-09-01T07:15:33.503Z,376.88
2018-09-01T07:15:34.106Z,376.88
2018-09-01T07:15:34.705Z,376.88
2018-09-01T07:15:35.304Z,376.88
2018-09-01T07:15:35.905Z,376.88
2018-09-01T07:15:36.504Z,376.88
2018-09-01T07:15:37.104Z,376.88
2018-09-01T07:16:32.401Z,382.50
2018-09-01T07:16:32.999Z,382.50
2018-09-01T07:16:33.600Z,382.50
2018-09-01T07:16:34.202Z,382.50
2018-09-01T07:16:34.798Z,382.50
2018-09-01T07:16:35.402Z,382.50
2018-09-01T07:16:35.999Z,382.50
2018-09-01T07:16:36.597Z,382.50
2018-09-01T07:17:31.077Z,382.50
2018-09-01T07:17:31.674Z,382.50
2018-09-01T07:17:32.275Z,382.50
2018-09-01T07:17:32.876Z,382.50
2018-09-01T07:17:33.473Z,382.50
2018-09-01T07:17:34.076Z,382.50
2018-09-01T07:17:34.674Z,388.13